Time;durP1;ratioP1;P1;durP2;ratioP2;P2;SDS_P1;SDS_P2;PMS_P1;PMS_P2;Temp;Humidity;BMP_temperature;BMP_pressure;BME280_temperature;BME280_humidity;BME280_pressure;Samples;Min_cycle;Max_cycle;Signal;HPM_P1;HPM_P2
2023/03/06 00:00:20;;;;;;;16.60;7.30;;;;;;;2.50;100.00;100377.25;5075336;28;20083;-50
2023/03/06 00:02:47;;;;;;;18.70;7.82;;;;;;;2.67;100.00;100373.38;5075679;28;20090;-50
2023/03/06 00:05:14;;;;;;;16.15;7.95;;;;;;;2.58;100.00;100376.69;5075709;28;20048;-52
2023/03/06 00:07:42;;;;;;;21.27;9.55;;;;;;;2.59;100.00;100373.97;5076040;28;20044;-52
2023/03/06 00:10:16;;;;;;;19.25;9.75;;;;;;;2.54;100.00;100370.81;5075676;28;20055;-51
2023/03/06 00:12:43;;;;;;;20.50;10.00;;;;;;;2.57;100.00;100368.00;5075848;28;20049;-51
2023/03/06 00:15:11;;;;;;;21.23;10.35;;;;;;;2.52;100.00;100366.66;5075268;28;20087;-50
2023/03/06 00:17:38;;;;;;;19.08;9.45;;;;;;;2.50;100.00;100361.53;5075380;28;20098;-51
2023/03/06 00:20:07;;;;;;;19.98;9.45;;;;;;;2.44;100.00;100362.00;5075477;28;20049;-49
2023/03/06 00:22:33;;;;;;;22.73;9.30;;;;;;;2.59;100.00;100360.03;5075485;28;20044;-50
2023/03/06 00:25:00;;;;;;;17.98;9.48;;;;;;;2.59;100.00;100353.00;5075479;28;20037;-48
2023/03/06 00:27:27;;;;;;;18.45;9.32;;;;;;;2.59;100.00;100346.94;5075451;28;20497;-48
2023/03/06 00:29:55;;;;;;;18.08;9.77;;;;;;;2.70;100.00;100352.22;5075442;28;20056;-48
2023/03/06 00:32:22;;;;;;;21.00;10.85;;;;;;;2.66;100.00;100350.78;5075166;28;20045;-48
2023/03/06 00:34:52;;;;;;;20.00;9.77;;;;;;;2.75;100.00;100339.63;5075505;28;20063;-49
2023/03/06 00:37:20;;;;;;;18.85;9.73;;;;;;;2.83;100.00;100344.28;5075673;28;20049;-48
2023/03/06 00:39:48;;;;;;;19.52;10.05;;;;;;;2.90;100.00;100334.19;5075193;28;20060;-49
2023/03/06 00:42:17;;;;;;;22.33;10.88;;;;;;;2.89;100.00;100338.59;5075069;28;20052;-49
2023/03/06 00:44:44;;;;;;;23.02;10.80;;;;;;;2.85;100.00;100342.38;5075201;28;20481;-49
2023/03/06 00:47:11;;;;;;;24.23;11.52;;;;;;;2.99;100.00;100328.28;5074782;28;20094;-50
2023/03/06 00:49:38;;;;;;;23.67;12.05;;;;;;;2.97;100.00;100333.63;5074724;28;20052;-51
2023/03/06 00:52:05;;;;;;;29.80;12.93;;;;;;;2.83;100.00;100323.34;5074955;28;20041;-49
2023/03/06 00:54:31;;;;;;;28.73;14.25;;;;;;;2.70;100.00;100312.94;5074654;28;20102;-50
2023/03/06 00:56:58;;;;;;;27.30;12.65;;;;;;;2.32;100.00;100318.38;5074809;28;20131;-49
2023/03/06 00:59:26;;;;;;;31.42;16.02;;;;;;;2.49;100.00;100310.09;5074662;28;20099;-51
2023/03/06 01:01:53;;;;;;;35.58;17.02;;;;;;;2.33;100.00;100310.41;5073787;28;20153;-50
2023/03/06 01:04:20;;;;;;;38.42;16.20;;;;;;;2.28;100.00;100309.91;5074803;28;20063;-49
2023/03/06 01:06:48;;;;;;;38.22;17.27;;;;;;;2.47;100.00;100302.38;5047611;28;20048;-50
2023/03/06 01:09:15;;;;;;;36.80;17.67;;;;;;;2.31;100.00;100296.59;5073119;28;20048;-50
2023/03/06 01:11:41;;;;;;;40.28;18.17;;;;;;;2.43;100.00;100300.09;5074316;28;20044;-51
2023/03/06 01:14:10;;;;;;;38.50;18.42;;;;;;;2.63;100.00;100296.00;5074517;28;20045;-51
2023/03/06 01:16:36;;;;;;;40.90;17.92;;;;;;;2.72;100.00;100299.72;5056256;28;20033;-49
2023/03/06 01:19:03;;;;;;;39.35;18.05;;;;;;;2.80;100.00;100295.59;5074361;28;20062;-50
2023/03/06 01:21:31;;;;;;;45.33;19.08;;;;;;;2.78;100.00;100292.22;5074099;28;20043;-49
2023/03/06 01:23:57;;;;;;;42.10;18.83;;;;;;;2.69;100.00;100285.91;5074263;28;20049;-50
2023/03/06 01:26:24;;;;;;;46.05;18.73;;;;;;;2.91;100.00;100286.06;5073608;28;20120;-52
2023/03/06 01:28:51;;;;;;;42.65;18.85;;;;;;;2.95;100.00;100284.88;5073636;28;20048;-52
2023/03/06 01:31:17;;;;;;;46.53;18.98;;;;;;;2.88;100.00;100279.28;5074301;28;20049;-50
2023/03/06 01:33:44;;;;;;;48.30;18.75;;;;;;;2.70;100.00;100276.25;5073672;28;20041;-53
2023/03/06 01:36:12;;;;;;;38.67;16.63;;;;;;;2.74;100.00;100274.25;5074453;28;20102;-50
2023/03/06 01:38:39;;;;;;;45.65;20.40;;;;;;;2.75;100.00;100275.91;5073932;28;20097;-53
2023/03/06 01:41:07;;;;;;;47.80;19.30;;;;;;;2.74;100.00;100276.88;5074082;28;20133;-49
2023/03/06 01:43:36;;;;;;;52.83;21.45;;;;;;;2.74;100.00;100267.22;5073485;28;20063;-52
2023/03/06 01:46:43;;;;;;;50.10;20.20;;;;;;;2.71;100.00;100264.00;5074031;28;20136;-52
2023/03/06 01:49:22;;;;;;;49.03;20.70;;;;;;;2.61;100.00;100267.31;5073353;28;20509;-52
2023/03/06 01:51:59;;;;;;;51.50;21.83;;;;;;;2.44;100.00;100257.25;5074026;28;20075;-50
2023/03/06 01:54:31;;;;;;;53.75;22.45;;;;;;;2.57;100.00;100252.78;5073395;28;20040;-50
2023/03/06 01:57:04;;;;;;;53.17;21.38;;;;;;;2.47;100.00;100252.63;5056583;28;20465;-49
2023/03/06 01:59:34;;;;;;;63.65;21.75;;;;;;;2.67;100.00;100245.06;5073472;28;20071;-50
2023/03/06 02:02:03;;;;;;;58.17;21.98;;;;;;;2.35;100.00;100243.06;5073092;28;20056;-52
2023/03/06 02:04:31;;;;;;;54.10;22.73;;;;;;;2.49;100.00;100247.25;5073273;28;20103;-52
2023/03/06 02:07:00;;;;;;;54.55;23.58;;;;;;;2.50;100.00;100238.47;5073595;28;20482;-49
2023/03/06 02:09:29;;;;;;;57.28;22.27;;;;;;;2.56;100.00;100238.00;5073513;28;20048;-50
2023/03/06 02:11:56;;;;;;;53.92;23.30;;;;;;;2.39;100.00;100239.25;5073445;28;20041;-53
2023/03/06 02:14:23;;;;;;;59.75;23.38;;;;;;;2.49;100.00;100244.63;5073607;28;20052;-49
2023/03/06 02:16:50;;;;;;;56.97;23.88;;;;;;;2.62;100.00;100234.94;5073386;28;20123;-52
2023/03/06 02:19:45;;;;;;;59.50;23.45;;;;;;;2.61;100.00;100230.63;5073286;28;20055;-49
2023/03/06 02:22:13;;;;;;;53.42;24.02;;;;;;;2.58;100.00;100227.41;5072846;28;20040;-51
2023/03/06 02:24:53;;;;;;;55.97;23.60;;;;;;;2.65;100.00;100226.00;5073490;28;20045;-50
2023/03/06 02:27:23;;;;;;;54.38;23.70;;;;;;;2.50;100.00;100225.38;5073470;28;20055;-50
2023/03/06 02:29:52;;;;;;;52.83;22.73;;;;;;;2.40;100.00;100222.63;5073277;28;20486;-49
2023/03/06 02:32:18;;;;;;;58.75;23.60;;;;;;;2.52;100.00;100220.84;5073340;28;20045;-51
2023/03/06 02:34:51;;;;;;;60.72;23.77;;;;;;;2.49;100.00;100216.69;5072775;28;20498;-51
2023/03/06 02:37:18;;;;;;;59.85;24.15;;;;;;;2.65;100.00;100221.59;5073212;28;20048;-51
2023/03/06 02:39:52;;;;;;;56.03;24.52;;;;;;;2.47;100.00;100218.59;5072977;28;20052;-51
2023/03/06 02:42:23;;;;;;;65.93;24.23;;;;;;;2.41;100.00;100220.81;5072939;28;20102;-52
2023/03/06 02:44:52;;;;;;;67.10;24.58;;;;;;;2.49;100.00;100213.22;5073305;28;20552;-52
2023/03/06 02:47:19;;;;;;;59.90;25.10;;;;;;;2.62;100.00;100215.75;5073112;28;20478;-51
2023/03/06 02:49:46;;;;;;;64.03;24.48;;;;;;;2.71;100.00;100215.09;5062865;28;20048;-52
2023/03/06 02:52:12;;;;;;;56.15;25.35;;;;;;;2.71;100.00;100209.00;5052890;28;20044;-52
2023/03/06 02:54:39;;;;;;;65.38;26.20;;;;;;;2.71;100.00;100209.00;5053206;28;20110;-50
2023/03/06 02:57:06;;;;;;;64.10;24.58;;;;;;;2.69;100.00;100203.84;5052820;28;20037;-52
2023/03/06 02:59:33;;;;;;;68.93;27.08;;;;;;;2.95;100.00;100209.75;5052647;28;20056;-49
2023/03/06 03:02:02;;;;;;;60.05;25.80;;;;;;;2.62;100.00;100208.75;5052286;28;20457;-50
2023/03/06 03:04:29;;;;;;;61.95;25.58;;;;;;;2.74;100.00;100206.97;5053009;28;20049;-51
2023/03/06 03:06:56;;;;;;;68.95;26.70;;;;;;;2.63;100.00;100209.56;5034885;28;20110;-52
2023/03/06 03:09:23;;;;;;;69.63;26.02;;;;;;;2.83;100.00;100210.69;5052895;28;20053;-49
2023/03/06 03:11:50;;;;;;;71.93;27.30;;;;;;;2.80;100.00;100206.53;5052735;28;20136;-50
2023/03/06 03:14:17;;;;;;;58.83;26.17;;;;;;;2.82;100.00;100203.75;5052651;28;20048;-49
2023/03/06 03:16:45;;;;;;;68.50;27.73;;;;;;;2.84;100.00;100196.63;5063828;28;20052;-50
2023/03/06 03:19:12;;;;;;;62.95;26.05;;;;;;;2.83;100.00;100201.03;5072516;28;20053;-50
2023/03/06 03:21:39;;;;;;;61.33;25.27;;;;;;;2.78;100.00;100200.53;5072897;28;20090;-49
2023/03/06 03:24:08;;;;;;;65.65;26.17;;;;;;;2.85;100.00;100200.91;5072507;28;20044;-49
2023/03/06 03:26:35;;;;;;;64.97;25.90;;;;;;;2.84;100.00;100199.25;5054857;28;20533;-50
2023/03/06 03:29:08;;;;;;;62.40;23.13;;;;;;;2.66;100.00;100199.69;5072785;28;20072;-50
2023/03/06 03:31:35;;;;;;;60.90;25.30;;;;;;;2.71;100.00;100195.88;5072616;28;20497;-51
2023/03/06 03:34:03;;;;;;;64.07;24.00;;;;;;;2.55;100.00;100193.59;5072171;28;20068;-52
2023/03/06 03:36:33;;;;;;;63.33;24.52;;;;;;;2.61;100.00;100188.72;5072964;28;20049;-51
2023/03/06 03:38:59;;;;;;;59.35;23.10;;;;;;;2.75;100.00;100179.84;5072574;28;20052;-50
2023/03/06 03:41:26;;;;;;;56.30;23.77;;;;;;;2.75;99.20;100181.59;5072693;28;20086;-51
2023/03/06 03:43:53;;;;;;;55.42;23.40;;;;;;;2.76;99.17;100185.91;5072164;28;20056;-52
2023/03/06 03:46:20;;;;;;;60.72;24.13;;;;;;;2.64;98.61;100183.28;5072495;28;20049;-50
2023/03/06 03:48:51;;;;;;;61.42;23.00;;;;;;;2.73;98.85;100175.66;5072336;28;20048;-50
2023/03/06 03:51:17;;;;;;;57.17;24.83;;;;;;;2.47;100.00;100168.84;5075159;28;20056;-52
2023/03/06 03:53:48;;;;;;;59.70;23.48;;;;;;;2.42;100.00;100167.50;5076079;28;20049;-50
2023/03/06 03:56:19;;;;;;;68.85;24.70;;;;;;;2.44;100.00;100163.00;5076113;28;20561;-51
2023/03/06 03:58:59;;;;;;;64.43;24.20;;;;;;;2.36;100.00;100154.88;5076010;28;20503;-50
2023/03/06 04:01:31;;;;;;;58.80;25.25;;;;;;;2.26;100.00;100149.50;5058168;28;20493;-50
2023/03/06 04:03:58;;;;;;;71.65;27.75;;;;;;;2.26;100.00;100146.91;5075410;28;20618;-49
2023/03/06 04:06:25;;;;;;;67.22;26.30;;;;;;;2.25;100.00;100145.22;5075592;28;20071;-49
2023/03/06 04:08:52;;;;;;;69.20;26.35;;;;;;;2.26;100.00;100145.09;5075673;28;20090;-48
2023/03/06 04:11:18;;;;;;;64.35;26.20;;;;;;;2.34;100.00;100147.13;5075729;28;20098;-50
2023/03/06 04:13:45;;;;;;;57.05;22.15;;;;;;;2.26;100.00;100145.09;5075532;28;20488;-49
2023/03/06 04:16:12;;;;;;;70.63;25.85;;;;;;;2.40;100.00;100146.69;5057772;28;20115;-51
2023/03/06 04:18:39;;;;;;;67.05;25.75;;;;;;;2.53;100.00;100146.59;5057629;28;20052;-49
2023/03/06 04:21:06;;;;;;;73.90;27.08;;;;;;;2.62;100.00;100140.66;5075495;28;20048;-50
2023/03/06 04:23:33;;;;;;;68.72;27.48;;;;;;;2.61;100.00;100140.78;5075771;28;20059;-50
2023/03/06 04:26:03;;;;;;;70.15;27.25;;;;;;;2.63;100.00;100138.88;5075545;28;20040;-48
2023/03/06 04:28:29;;;;;;;80.35;28.13;;;;;;;2.73;100.00;100134.59;5075173;28;20502;-50
2023/03/06 04:30:57;;;;;;;80.25;28.17;;;;;;;2.70;100.00;100121.72;5075584;28;20052;-49
2023/03/06 04:33:25;;;;;;;73.72;28.65;;;;;;;2.73;100.00;100118.03;5074907;28;20135;-49
2023/03/06 04:35:52;;;;;;;73.05;29.58;;;;;;;2.83;100.00;100119.81;5075411;28;20060;-50
2023/03/06 04:38:24;;;;;;;72.15;28.58;;;;;;;2.76;100.00;100123.03;5075353;28;20051;-49
2023/03/06 04:40:51;;;;;;;77.63;28.83;;;;;;;2.61;100.00;100115.41;5075094;28;20554;-50
2023/03/06 04:43:17;;;;;;;71.82;28.77;;;;;;;2.74;100.00;100117.09;5074919;28;20048;-51
2023/03/06 04:45:44;;;;;;;83.32;29.13;;;;;;;2.83;100.00;100114.56;5074918;28;20501;-48
2023/03/06 04:48:15;;;;;;;84.45;30.50;;;;;;;2.67;100.00;100116.72;5074905;28;20486;-52
2023/03/06 04:50:42;;;;;;;86.22;31.05;;;;;;;2.64;100.00;100106.50;5070171;28;20040;-49
2023/03/06 04:53:09;;;;;;;83.38;29.08;;;;;;;2.76;100.00;100109.94;5073731;28;20374;-50
2023/03/06 04:55:36;;;;;;;79.18;29.83;;;;;;;2.71;99.51;100109.47;5074888;28;20052;-50
2023/03/06 04:58:03;;;;;;;82.88;30.77;;;;;;;2.63;100.00;100103.03;5074801;28;20074;-52
2023/03/06 05:00:30;;;;;;;83.90;30.30;;;;;;;2.84;100.00;100102.34;5073956;28;20040;-49
2023/03/06 05:02:58;;;;;;;73.70;26.52;;;;;;;2.60;99.89;100105.91;5074098;28;20086;-52
2023/03/06 05:05:26;;;;;;;81.55;28.48;;;;;;;2.58;100.00;100109.56;5056906;28;20044;-49
2023/03/06 05:07:53;;;;;;;77.78;30.08;;;;;;;2.63;100.00;100113.50;5074368;28;20037;-53
2023/03/06 05:10:20;;;;;;;84.82;30.70;;;;;;;2.38;100.00;100105.84;5056396;28;20094;-50
2023/03/06 05:12:47;;;;;;;93.07;31.13;;;;;;;2.52;100.00;100107.44;5074639;28;20459;-51
2023/03/06 05:15:14;;;;;;;91.40;30.77;;;;;;;2.53;100.00;100112.56;5074360;28;20544;-49
2023/03/06 05:17:41;;;;;;;87.28;32.78;;;;;;;2.44;100.00;100114.09;5074063;28;20097;-50
2023/03/06 05:20:10;;;;;;;96.07;31.70;;;;;;;2.36;100.00;100111.22;5074148;28;20051;-51
2023/03/06 05:22:37;;;;;;;89.40;30.27;;;;;;;2.56;100.00;100112.31;5074349;28;20045;-49
2023/03/06 05:25:04;;;;;;;84.40;30.67;;;;;;;2.65;100.00;100116.00;5073860;28;20047;-51
2023/03/06 05:27:32;;;;;;;85.68;31.13;;;;;;;2.69;99.95;100113.03;5073909;28;20036;-52
2023/03/06 05:29:58;;;;;;;96.00;31.58;;;;;;;2.61;100.00;100110.16;5074042;28;20044;-50
2023/03/06 05:32:25;;;;;;;90.68;30.50;;;;;;;2.67;100.00;100103.63;5073900;28;20401;-50
2023/03/06 05:34:52;;;;;;;83.13;29.70;;;;;;;2.70;99.43;100103.41;5073714;28;20045;-52
2023/03/06 05:37:18;;;;;;;80.88;27.58;;;;;;;2.65;98.67;100106.34;5056181;28;20371;-51
2023/03/06 05:39:45;;;;;;;71.43;26.23;;;;;;;2.57;98.28;100118.41;5073669;28;20444;-49
2023/03/06 05:42:12;;;;;;;75.30;24.85;;;;;;;2.60;98.39;100108.53;5073602;28;20527;-53
2023/03/06 05:44:40;;;;;;;95.50;30.17;;;;;;;2.45;99.25;100107.88;5074003;28;20114;-52
2023/03/06 05:47:07;;;;;;;85.57;30.50;;;;;;;2.47;99.00;100113.88;5073795;28;20047;-49
2023/03/06 05:49:35;;;;;;;89.95;29.95;;;;;;;2.51;99.38;100104.00;5073353;28;20486;-51
2023/03/06 05:52:03;;;;;;;78.97;28.75;;;;;;;2.72;98.71;100108.50;5073942;28;20049;-50
2023/03/06 05:54:31;;;;;;;76.95;28.20;;;;;;;2.75;97.09;100110.88;5073705;28;20044;-50
2023/03/06 05:56:59;;;;;;;83.03;30.98;;;;;;;2.36;99.26;100099.91;5073775;28;20131;-53
2023/03/06 05:59:27;;;;;;;85.18;30.50;;;;;;;2.45;99.11;100096.59;5073430;28;20203;-53
2023/03/06 06:01:54;;;;;;;77.22;29.15;;;;;;;2.57;99.54;100102.69;5073296;28;20049;-50
2023/03/06 06:04:22;;;;;;;90.78;28.23;;;;;;;2.49;98.43;100098.88;5073450;28;20052;-50
2023/03/06 06:06:55;;;;;;;82.85;29.38;;;;;;;2.49;97.98;100098.88;5073433;28;20045;-49
2023/03/06 06:09:22;;;;;;;68.05;25.50;;;;;;;2.34;98.67;100097.41;5073340;28;20111;-50
2023/03/06 06:11:53;;;;;;;68.07;25.42;;;;;;;2.47;98.56;100099.91;5073141;28;20075;-49
2023/03/06 06:14:21;;;;;;;84.20;29.00;;;;;;;2.42;98.97;100091.56;5073024;28;20045;-50
2023/03/06 06:16:49;;;;;;;92.82;29.15;;;;;;;2.37;99.85;100084.09;5073498;28;20090;-51
2023/03/06 06:19:19;;;;;;;69.97;25.80;;;;;;;2.26;100.00;100095.38;5072969;28;20098;-48
2023/03/06 06:21:50;;;;;;;78.22;27.45;;;;;;;2.16;100.00;100096.19;5072857;28;20409;-49
2023/03/06 06:24:19;;;;;;;78.90;27.42;;;;;;;2.17;100.00;100096.06;5073304;28;20516;-49
2023/03/06 06:26:49;;;;;;;86.95;29.33;;;;;;;2.24;100.00;100091.22;5055374;28;20064;-49
2023/03/06 06:29:17;;;;;;;85.45;28.52;;;;;;;2.18;100.00;100095.09;5073094;28;20074;-51
2023/03/06 06:31:43;;;;;;;80.68;28.50;;;;;;;2.35;99.62;100090.38;5073057;28;20489;-53
2023/03/06 06:34:12;;;;;;;65.97;26.40;;;;;;;2.29;99.43;100092.53;5072731;28;20032;-48
2023/03/06 06:36:38;;;;;;;78.28;28.48;;;;;;;2.37;99.68;100096.34;5071635;28;20044;-50
2023/03/06 06:39:06;;;;;;;77.75;27.20;;;;;;;2.58;96.94;100093.84;5038739;28;20440;-49
2023/03/06 06:41:33;;;;;;;77.15;27.33;;;;;;;2.55;96.02;100092.31;5072575;28;20036;-51
2023/03/06 06:44:19;;;;;;;80.50;26.38;;;;;;;2.59;95.34;100092.91;5054593;28;20456;-51
2023/03/06 06:46:46;;;;;;;75.82;26.67;;;;;;;2.62;95.53;100100.53;5072218;28;20094;-49
2023/03/06 06:49:33;;;;;;;76.13;28.23;;;;;;;2.62;95.26;100097.91;5057101;28;20550;-49
2023/03/06 06:52:00;;;;;;;79.03;27.13;;;;;;;2.72;95.66;100096.25;5066489;28;20066;-49
2023/03/06 06:54:27;;;;;;;84.60;29.65;;;;;;;2.57;95.33;100094.81;5071382;28;20147;-51
2023/03/06 06:56:54;;;;;;;77.05;28.17;;;;;;;2.47;96.52;100097.31;5072280;28;20032;-49
2023/03/06 06:59:22;;;;;;;77.07;28.10;;;;;;;2.39;96.76;100100.50;5072145;28;20071;-49
2023/03/06 07:01:50;;;;;;;76.07;26.77;;;;;;;2.43;96.55;100098.50;5071835;28;20040;-51
2023/03/06 07:04:18;;;;;;;81.95;28.67;;;;;;;2.42;97.55;100096.81;5054995;28;20079;-52
2023/03/06 07:06:45;;;;;;;77.45;27.08;;;;;;;2.49;97.76;100103.25;5069180;28;20048;-50
2023/03/06 07:09:12;;;;;;;65.32;23.85;;;;;;;2.42;96.30;100102.03;5072332;28;20493;-49
2023/03/06 07:11:40;;;;;;;77.38;27.30;;;;;;;2.28;97.04;100103.94;5072252;28;20067;-50
2023/03/06 07:14:06;;;;;;;80.25;27.80;;;;;;;2.28;97.60;100105.72;5072526;28;20123;-49
2023/03/06 07:16:33;;;;;;;80.38;27.50;;;;;;;2.26;97.48;100107.63;5072696;28;20047;-51
2023/03/06 07:19:00;;;;;;;66.32;24.80;;;;;;;2.26;97.19;100107.63;5066576;28;20486;-49
2023/03/06 07:21:27;;;;;;;66.18;24.98;;;;;;;2.30;97.39;100103.84;5072014;28;20121;-49
2023/03/06 07:23:56;;;;;;;64.35;23.08;;;;;;;2.53;95.69;100106.47;5072543;28;20044;-50
2023/03/06 07:26:24;;;;;;;65.22;23.80;;;;;;;2.29;96.37;100108.25;5075246;28;20060;-52
2023/03/06 07:28:52;;;;;;;65.30;24.05;;;;;;;2.36;96.23;100115.63;5074809;28;20052;-51
2023/03/06 07:31:23;;;;;;;70.35;23.20;;;;;;;2.49;95.23;100104.09;5062747;28;20049;-51
2023/03/06 07:33:50;;;;;;;57.70;19.67;;;;;;;2.27;95.06;100106.66;5070820;28;20452;-52
2023/03/06 07:36:17;;;;;;;69.22;22.23;;;;;;;2.30;95.33;100103.84;5066664;28;20045;-50
2023/03/06 07:38:44;;;;;;;60.80;22.23;;;;;;;2.31;94.71;100110.75;5071715;28;20048;-51
2023/03/06 07:41:12;;;;;;;64.45;23.23;;;;;;;2.46;94.61;100116.59;5076037;28;20068;-53
2023/03/06 07:43:40;;;;;;;50.63;20.42;;;;;;;2.33;95.15;100113.22;5075830;28;20060;-49
2023/03/06 07:46:07;;;;;;;71.43;24.05;;;;;;;2.35;96.42;100108.69;5060388;28;20029;-50
2023/03/06 07:48:35;;;;;;;65.50;23.58;;;;;;;2.40;95.61;100106.56;5040688;28;20378;-53
2023/03/06 07:51:05;;;;;;;62.45;23.70;;;;;;;2.44;95.65;100105.41;5075609;28;20044;-50
2023/03/06 07:53:32;;;;;;;66.97;24.52;;;;;;;2.54;95.60;100108.16;5071906;28;20029;-52
2023/03/06 07:55:59;;;;;;;64.78;24.55;;;;;;;2.67;95.75;100104.47;5052337;28;20049;-53
2023/03/06 07:58:26;;;;;;;62.97;21.50;;;;;;;2.66;94.38;100107.22;5021472;28;20039;-50
2023/03/06 08:00:52;;;;;;;70.72;24.55;;;;;;;2.79;93.26;100107.09;5059941;28;20036;-53
2023/03/06 08:03:19;;;;;;;69.18;25.05;;;;;;;2.77;94.38;100107.19;5047454;28;20036;-52
2023/03/06 08:05:46;;;;;;;71.60;24.10;;;;;;;2.87;94.04;100107.31;5060094;28;20664;-58
2023/03/06 08:08:13;;;;;;;63.97;24.00;;;;;;;2.84;94.13;100102.34;5048365;28;20037;-58
2023/03/06 08:10:39;;;;;;;72.38;27.02;;;;;;;2.94;94.10;100111.13;5063123;28;20041;-58
2023/03/06 08:13:06;;;;;;;79.15;26.30;;;;;;;2.81;94.06;100111.25;5049218;28;20044;-59
2023/03/06 08:15:32;;;;;;;81.63;28.05;;;;;;;2.72;94.07;100106.72;5060572;28;20052;-58
2023/03/06 08:17:59;;;;;;;100.95;31.85;;;;;;;2.87;93.58;100102.94;5057983;28;20073;-59
2023/03/06 08:20:26;;;;;;;84.13;27.58;;;;;;;2.75;94.78;100108.25;5063874;28;20132;-58
2023/03/06 08:22:52;;;;;;;99.35;31.15;;;;;;;2.78;95.00;100103.63;5065890;28;20051;-58
2023/03/06 08:25:19;;;;;;;94.88;31.50;;;;;;;2.80;94.51;100106.13;5057519;28;20041;-59
2023/03/06 08:27:46;;;;;;;110.07;36.17;;;;;;;2.90;94.38;100104.47;5059783;28;20083;-58
2023/03/06 08:30:13;;;;;;;101.78;33.33;;;;;;;2.76;94.69;100095.03;5064711;28;20063;-58
2023/03/06 08:32:41;;;;;;;114.15;34.65;;;;;;;2.88;95.02;100090.66;5033826;28;20483;-59
2023/03/06 08:35:08;;;;;;;111.63;35.13;;;;;;;2.93;94.97;100098.13;5070096;28;20045;-58
2023/03/06 08:37:34;;;;;;;115.15;36.10;;;;;;;3.01;94.20;100096.59;5063990;28;20052;-59
2023/03/06 08:40:03;;;;;;;105.90;34.10;;;;;;;3.03;94.37;100099.91;5064138;28;21370;-59
2023/03/06 08:42:31;;;;;;;109.82;34.63;;;;;;;3.24;93.53;100093.94;5072192;28;20076;-58
2023/03/06 08:44:58;;;;;;;115.40;34.85;;;;;;;3.22;93.96;100093.19;5067557;28;20074;-59
2023/03/06 08:47:25;;;;;;;112.15;36.63;;;;;;;3.16;93.46;100093.69;5059914;28;20044;-59
2023/03/06 08:49:52;;;;;;;103.25;34.40;;;;;;;3.13;94.52;100088.69;5064182;28;20079;-58
2023/03/06 08:52:19;;;;;;;100.88;33.20;;;;;;;3.21;93.72;100091.56;5069386;28;20131;-58
2023/03/06 08:54:45;;;;;;;97.32;33.17;;;;;;;3.23;92.67;100094.88;5057506;28;20056;-59
2023/03/06 08:57:12;;;;;;;92.15;32.35;;;;;;;3.25;92.93;100093.78;5067114;28;20394;-58
2023/03/06 08:59:40;;;;;;;105.40;32.45;;;;;;;3.32;93.03;100085.47;5049891;28;20651;-58
2023/03/06 09:02:11;;;;;;;111.32;33.92;;;;;;;3.36;92.57;100086.88;5058085;28;20573;-59
2023/03/06 09:04:38;;;;;;;97.50;30.70;;;;;;;3.41;92.73;100085.53;5060001;28;20124;-59
2023/03/06 09:07:06;;;;;;;84.80;29.23;;;;;;;3.46;92.33;100093.03;5066536;28;20047;-58
2023/03/06 09:09:33;;;;;;;91.25;32.95;;;;;;;3.41;91.40;100087.34;5043480;28;20047;-59
2023/03/06 09:11:59;;;;;;;112.88;34.90;;;;;;;3.45;91.65;100094.81;5056126;28;20398;-59
2023/03/06 09:14:26;;;;;;;101.15;34.70;;;;;;;3.40;92.52;100089.13;5057152;28;20091;-58
2023/03/06 09:16:53;;;;;;;192.00;38.17;;;;;;;3.51;92.59;100090.03;5045825;28;20052;-59
2023/03/06 09:19:19;;;;;;;68.00;26.45;;;;;;;3.30;90.84;100090.81;5058303;28;20040;-59
2023/03/06 09:21:47;;;;;;;100.28;34.20;;;;;;;3.19;91.74;100093.47;5061109;28;20089;-58
2023/03/06 09:24:14;;;;;;;93.72;31.58;;;;;;;3.18;91.69;100092.63;5070523;28;20055;-58
2023/03/06 09:26:40;;;;;;;91.50;31.42;;;;;;;3.26;92.02;100099.88;5060229;28;20041;-59
2023/03/06 09:29:14;;;;;;;96.07;30.25;;;;;;;3.24;91.57;100099.19;5058002;28;20090;-59
2023/03/06 09:31:41;;;;;;;81.50;28.95;;;;;;;3.15;91.04;100105.16;5064906;28;20044;-58
2023/03/06 09:34:09;;;;;;;89.80;31.83;;;;;;;3.05;91.98;100105.03;5065353;28;20516;-58
2023/03/06 09:36:35;;;;;;;97.18;30.58;;;;;;;3.08;92.36;100105.63;5065022;28;20048;-59
2023/03/06 09:39:19;;;;;;;77.68;26.90;;;;;;;3.03;92.07;100099.91;5057930;28;20502;-58
2023/03/06 09:41:48;;;;;;;75.35;29.05;;;;;;;2.93;92.33;100111.22;5065442;28;20044;-58
2023/03/06 09:44:19;;;;;;;83.57;29.08;;;;;;;3.22;92.26;100108.94;5046205;28;20124;-58
2023/03/06 09:47:19;;;;;;;92.18;31.25;;;;;;;3.29;92.91;100106.66;5075600;28;20044;-58
2023/03/06 09:50:12;;;;;;;92.40;29.92;;;;;;;3.40;92.73;100097.00;5038390;28;20119;-58
2023/03/06 09:52:56;;;;;;;88.78;30.52;;;;;;;3.36;92.92;100102.59;5061144;28;20040;-59
2023/03/06 09:55:26;;;;;;;104.72;32.90;;;;;;;3.04;94.30;100096.34;5065612;28;20055;-58
2023/03/06 09:58:01;;;;;;;97.32;31.35;;;;;;;3.22;95.56;100098.44;5050320;28;20045;-58
2023/03/06 10:00:35;;;;;;;83.63;29.70;;;;;;;3.17;95.01;100111.94;5022368;28;20052;-58
2023/03/06 10:03:33;;;;;;;70.25;26.23;;;;;;;2.96;95.17;100103.97;5062687;28;20501;-58
2023/03/06 10:06:23;;;;;;;78.82;26.25;;;;;;;3.18;94.82;100110.13;5060861;28;20167;-58
2023/03/06 10:08:56;;;;;;;78.57;28.95;;;;;;;3.23;94.97;100108.00;5069720;28;20516;-58
2023/03/06 10:11:31;;;;;;;76.50;27.00;;;;;;;3.31;93.37;100110.84;5059929;28;20387;-58
2023/03/06 10:14:25;;;;;;;70.55;26.92;;;;;;;3.36;92.68;100102.59;5063623;28;20135;-58
2023/03/06 10:16:52;;;;;;;85.88;27.83;;;;;;;3.45;92.84;100089.56;5071532;28;20047;-59
2023/03/06 10:19:20;;;;;;;78.07;27.23;;;;;;;3.51;92.75;100098.75;5071337;28;20132;-58
2023/03/06 10:22:15;;;;;;;67.97;25.80;;;;;;;3.44;92.04;100100.22;5056939;28;20921;-58
2023/03/06 10:27:46;;;;;;;78.05;26.45;;;;;;;3.65;91.61;100098.44;5032162;28;20409;-57
2023/03/06 10:30:31;;;;;;;70.32;25.77;;;;;;;3.69;92.11;100101.66;5010257;28;20045;-58
2023/03/06 10:33:23;;;;;;;82.47;27.40;;;;;;;3.82;93.20;100101.47;5010215;28;20042;-57
2023/03/06 10:35:53;;;;;;;69.20;23.52;;;;;;;3.77;92.08;100101.88;5023203;28;20037;-58
2023/03/06 10:38:23;;;;;;;63.85;22.65;;;;;;;3.37;92.99;100107.72;5004834;28;20045;-58
2023/03/06 10:41:04;;;;;;;63.03;21.50;;;;;;;3.24;94.82;100105.25;5028844;28;20495;-58
2023/03/06 10:43:31;;;;;;;68.72;23.17;;;;;;;3.03;96.06;100106.94;5020303;28;20049;-58
2023/03/06 10:46:00;;;;;;;68.25;22.90;;;;;;;3.07;96.26;100106.59;5011160;28;20052;-58
2023/03/06 10:48:29;;;;;;;67.80;23.75;;;;;;;2.88;97.15;100101.13;5016350;28;20463;-57
2023/03/06 10:51:18;;;;;;;70.93;24.70;;;;;;;2.83;96.99;100105.88;5020306;28;20048;-58
2023/03/06 10:53:55;;;;;;;62.50;23.35;;;;;;;2.91;97.42;100102.66;5013265;28;20037;-58
2023/03/06 10:56:32;;;;;;;70.38;24.42;;;;;;;3.01;97.12;100104.44;5023496;28;20038;-58
2023/03/06 10:59:18;;;;;;;69.25;25.05;;;;;;;3.06;96.55;100114.56;5019496;28;20053;-58
2023/03/06 11:01:49;;;;;;;67.63;26.10;;;;;;;2.91;96.19;100105.28;5012601;28;20475;-58
2023/03/06 11:04:27;;;;;;;60.45;23.27;;;;;;;2.91;96.98;100108.75;5002101;28;20988;-58
2023/03/06 11:07:16;;;;;;;73.65;25.58;;;;;;;3.07;97.06;100105.75;5021023;28;20452;-57
2023/03/06 11:10:02;;;;;;;77.05;26.10;;;;;;;3.14;96.67;100106.94;5018500;28;20046;-58
2023/03/06 11:12:32;;;;;;;74.30;26.80;;;;;;;2.99;97.11;100114.22;5005768;28;20499;-58
2023/03/06 11:15:11;;;;;;;73.43;26.38;;;;;;;3.07;97.77;100114.47;5013319;28;20640;-58
2023/03/06 11:18:00;;;;;;;71.25;25.20;;;;;;;3.04;97.47;100117.31;5006250;28;20092;-58
2023/03/06 11:20:39;;;;;;;73.60;26.98;;;;;;;3.12;98.05;100111.47;5017410;28;20045;-57
2023/03/06 11:23:28;;;;;;;73.68;25.77;;;;;;;3.25;96.90;100120.00;5006699;28;20049;-58
2023/03/06 11:26:00;;;;;;;78.10;26.00;;;;;;;3.33;94.88;100118.56;5018022;28;20601;-58
2023/03/06 11:28:39;;;;;;;67.50;26.15;;;;;;;3.48;94.64;100114.72;5009339;28;20046;-58